createdAt,value
2023-04-23T00:02:13.763Z,15.12
2023-04-23T00:04:50.426Z,15.16
2023-04-23T00:07:19.869Z,15.11
2023-04-23T00:09:46.987Z,15.10
2023-04-23T00:12:15.089Z,15.15
2023-04-23T00:14:43.188Z,15.09
2023-04-23T00:17:11.470Z,15.11
2023-04-23T00:19:38.915Z,15.02
2023-04-23T00:22:06.191Z,14.99
2023-04-23T00:24:36.285Z,14.97
2023-04-23T00:27:03.727Z,15.08
2023-04-23T00:29:30.463Z,14.96
2023-04-23T00:31:57.307Z,14.92
2023-04-23T00:34:24.100Z,14.87
2023-04-23T00:36:50.784Z,14.86
2023-04-23T00:39:18.769Z,14.92
2023-04-23T00:41:49.093Z,14.91
2023-04-23T00:44:16.032Z,14.86
2023-04-23T00:46:43.707Z,14.88
2023-04-23T00:49:11.332Z,14.87
2023-04-23T00:51:38.017Z,14.86
2023-04-23T00:54:04.924Z,14.88
2023-04-23T00:56:31.954Z,14.90
2023-04-23T00:58:58.843Z,14.84
2023-04-23T01:01:26.133Z,14.81
2023-04-23T01:03:54.260Z,14.74
2023-04-23T01:06:21.927Z,14.70
2023-04-23T01:08:49.653Z,14.68
2023-04-23T01:11:17.167Z,14.67
2023-04-23T01:13:44.558Z,14.65
2023-04-23T01:16:11.608Z,14.69
2023-04-23T01:18:40.994Z,14.65
2023-04-23T01:21:10.622Z,14.67
2023-04-23T01:23:37.998Z,14.62
2023-04-23T01:26:05.384Z,14.63
2023-04-23T01:28:33.442Z,14.61
2023-04-23T01:31:01.803Z,14.46
2023-04-23T01:33:29.563Z,14.34
2023-04-23T01:35:57.639Z,14.14
2023-04-23T01:38:28.626Z,14.02
2023-04-23T01:40:55.310Z,14.02
2023-04-23T01:43:23.018Z,13.69
2023-04-23T01:45:49.846Z,13.48
2023-04-23T01:48:17.744Z,13.36
2023-04-23T01:50:45.269Z,13.24
2023-04-23T01:53:12.012Z,13.29
2023-04-23T01:55:39.718Z,13.19
2023-04-23T01:58:06.797Z,13.11
2023-04-23T02:00:33.516Z,13.06
2023-04-23T02:03:00.463Z,13.07
2023-04-23T02:05:29.645Z,12.89
2023-04-23T02:07:57.038Z,12.78
2023-04-23T02:10:23.829Z,12.73
2023-04-23T02:12:50.574Z,12.76
2023-04-23T02:15:17.655Z,12.62
2023-04-23T02:17:44.424Z,12.59
2023-04-23T02:20:11.858Z,12.59
2023-04-23T02:22:41.390Z,12.38
2023-04-23T02:25:08.905Z,12.25
2023-04-23T02:27:36.027Z,12.07
2023-04-23T02:30:03.588Z,12.08
2023-04-23T02:32:31.268Z,11.91
2023-04-23T02:34:59.663Z,11.73
2023-04-23T02:37:27.009Z,11.80
2023-04-23T02:39:54.398Z,11.84
2023-04-23T02:42:21.409Z,11.67
2023-04-23T02:44:48.793Z,11.60
2023-04-23T02:47:16.348Z,11.59
2023-04-23T02:49:44.143Z,11.51
2023-04-23T02:52:11.660Z,11.45
2023-04-23T02:54:38.740Z,11.41
2023-04-23T02:57:06.562Z,11.49
2023-04-23T02:59:33.387Z,11.47
2023-04-23T03:02:00.264Z,11.46
2023-04-23T03:04:27.662Z,11.44
2023-04-23T03:06:55.224Z,11.39
2023-04-23T03:09:21.928Z,11.43
2023-04-23T03:11:48.699Z,11.27
2023-04-23T03:14:15.598Z,11.27
2023-04-23T03:16:42.514Z,11.21
2023-04-23T03:19:09.499Z,11.16
2023-04-23T03:21:36.236Z,11.06
2023-04-23T03:24:02.969Z,11.00
2023-04-23T03:26:30.299Z,10.97
2023-04-23T03:28:57.162Z,10.96
2023-04-23T03:31:24.074Z,10.87
2023-04-23T03:33:50.868Z,10.76
2023-04-23T03:36:18.113Z,10.70
2023-04-23T03:38:45.020Z,10.70
2023-04-23T03:41:11.879Z,10.72
2023-04-23T03:43:38.608Z,10.66
2023-04-23T03:46:05.494Z,10.65
2023-04-23T03:48:32.274Z,10.70
2023-04-23T03:50:59.215Z,10.55
2023-04-23T03:53:26.788Z,10.50
2023-04-23T03:55:53.673Z,10.48
2023-04-23T03:58:20.354Z,10.46
2023-04-23T04:00:47.343Z,10.69
2023-04-23T04:03:14.325Z,10.52
2023-04-23T04:05:41.222Z,10.52
2023-04-23T04:08:08.082Z,10.51
2023-04-23T04:10:35.005Z,10.46
2023-04-23T04:13:01.719Z,10.52
2023-04-23T04:15:28.426Z,10.42
2023-04-23T04:17:55.191Z,10.59
2023-04-23T04:20:21.928Z,10.48
2023-04-23T04:22:48.632Z,10.49
2023-04-23T04:25:15.301Z,10.51
2023-04-23T04:27:41.979Z,10.52
2023-04-23T04:30:09.433Z,10.57
2023-04-23T04:32:38.876Z,10.58
2023-04-23T04:35:07.119Z,10.61
2023-04-23T04:37:33.884Z,10.61
2023-04-23T04:40:01.532Z,10.51
2023-04-23T04:42:28.430Z,10.53
2023-04-23T04:44:58.317Z,10.56
2023-04-23T04:47:25.819Z,10.58
2023-04-23T04:49:52.593Z,10.51
2023-04-23T04:52:20.010Z,10.56
2023-04-23T04:54:46.708Z,10.43
2023-04-23T04:57:13.405Z,10.38
2023-04-23T04:59:40.356Z,10.42
2023-04-23T05:02:07.352Z,10.50
2023-04-23T05:04:34.225Z,10.48
2023-04-23T05:07:01.298Z,10.43
2023-04-23T05:09:28.176Z,10.46
2023-04-23T05:11:54.943Z,10.41
2023-04-23T05:14:21.632Z,10.44
2023-04-23T05:16:48.478Z,10.35
2023-04-23T05:19:15.211Z,10.34
2023-04-23T05:21:42.712Z,10.31
2023-04-23T05:24:09.369Z,10.20
2023-04-23T05:26:36.081Z,10.26
2023-04-23T05:29:02.757Z,10.30
2023-04-23T05:31:30.019Z,10.29
2023-04-23T05:33:56.789Z,10.27
2023-04-23T05:36:23.761Z,10.34
2023-04-23T05:38:50.432Z,10.43
2023-04-23T05:41:17.276Z,10.50
2023-04-23T05:43:44.246Z,10.33
2023-04-23T05:46:11.167Z,10.40
2023-04-23T05:48:38.027Z,10.27
2023-04-23T05:51:04.956Z,10.39
2023-04-23T05:53:31.669Z,10.47
2023-04-23T05:55:59.153Z,10.60
2023-04-23T05:58:26.119Z,10.72
2023-04-23T06:00:53.787Z,10.68
2023-04-23T06:03:22.132Z,10.80
2023-04-23T06:05:50.273Z,10.82
2023-04-23T06:08:17.198Z,10.81
2023-04-23T06:10:44.018Z,10.85
2023-04-23T06:13:11.138Z,10.87
2023-04-23T06:15:38.089Z,10.85
2023-04-23T06:18:05.586Z,10.87
2023-04-23T06:20:32.331Z,11.12
2023-04-23T06:22:59.003Z,11.20
2023-04-23T06:25:26.022Z,11.28
2023-04-23T06:27:52.768Z,11.09
2023-04-23T06:30:20.042Z,10.89
2023-04-23T06:32:47.038Z,10.77
2023-04-23T06:35:13.780Z,10.93
2023-04-23T06:37:40.730Z,10.91
2023-04-23T06:40:07.891Z,10.96
2023-04-23T06:42:34.606Z,11.06
2023-04-23T06:45:06.181Z,11.10
2023-04-23T06:47:33.504Z,11.31
2023-04-23T06:50:00.297Z,11.41
2023-04-23T06:52:27.605Z,11.38
2023-04-23T06:54:54.432Z,11.21
2023-04-23T06:57:23.979Z,11.20
2023-04-23T06:59:51.275Z,11.34
2023-04-23T07:02:18.880Z,11.14
2023-04-23T07:04:46.908Z,11.42
2023-04-23T07:07:13.765Z,11.62
2023-04-23T07:09:40.505Z,11.66
2023-04-23T07:12:08.462Z,11.82
2023-04-23T07:14:35.292Z,12.01
2023-04-23T07:17:02.277Z,12.06
2023-04-23T07:19:29.070Z,11.95
2023-04-23T07:21:55.842Z,11.79
2023-04-23T07:24:22.589Z,11.89
2023-04-23T07:26:49.698Z,11.77
2023-04-23T07:29:16.694Z,11.94
2023-04-23T07:31:43.776Z,12.09
2023-04-23T07:34:10.550Z,12.07
2023-04-23T07:36:38.123Z,12.43
2023-04-23T07:39:05.594Z,12.34
2023-04-23T07:41:33.063Z,12.34
2023-04-23T07:43:59.908Z,12.49
2023-04-23T07:46:27.545Z,12.53
2023-04-23T07:48:54.340Z,12.76
2023-04-23T07:51:22.570Z,13.03
2023-04-23T07:53:51.404Z,12.56
2023-04-23T07:56:18.317Z,12.74
2023-04-23T07:58:45.829Z,12.89
2023-04-23T08:01:12.627Z,12.91
2023-04-23T08:03:39.512Z,12.72
2023-04-23T08:06:06.705Z,12.96
2023-04-23T08:08:33.383Z,12.68
2023-04-23T08:11:00.268Z,12.37
2023-04-23T08:13:27.095Z,12.58
2023-04-23T08:15:53.808Z,12.79
2023-04-23T08:18:20.700Z,12.78
2023-04-23T08:20:47.338Z,12.71
2023-04-23T08:23:14.054Z,12.75
2023-04-23T08:25:40.904Z,12.70
2023-04-23T08:28:07.610Z,12.75
2023-04-23T08:30:36.062Z,12.56
2023-04-23T08:33:03.185Z,12.40
2023-04-23T08:35:30.809Z,12.68
2023-04-23T08:37:57.686Z,12.81
2023-04-23T08:40:25.324Z,12.70
2023-04-23T08:43:01.477Z,12.78
2023-04-23T08:45:29.834Z,12.83
2023-04-23T08:48:02.141Z,12.96
2023-04-23T08:50:30.010Z,12.99
2023-04-23T08:52:58.081Z,12.96
2023-04-23T08:55:25.878Z,12.77
2023-04-23T08:57:53.230Z,12.90
2023-04-23T09:00:23.299Z,12.95
2023-04-23T09:02:50.773Z,13.01
2023-04-23T09:05:17.822Z,12.87
2023-04-23T09:07:45.101Z,12.93
2023-04-23T09:10:14.834Z,12.98
2023-04-23T09:12:44.202Z,12.98
2023-04-23T09:15:12.872Z,13.28
2023-04-23T09:17:47.639Z,13.24
2023-04-23T09:20:15.718Z,13.40
2023-04-23T09:22:47.091Z,13.30
2023-04-23T09:25:17.745Z,13.61
2023-04-23T09:27:45.925Z,13.15
2023-04-23T09:30:13.754Z,13.54
2023-04-23T09:32:42.862Z,13.73
2023-04-23T09:35:13.774Z,13.66
2023-04-23T09:37:48.535Z,13.94
2023-04-23T09:40:23.397Z,13.93
2023-04-23T09:42:54.311Z,13.84
2023-04-23T09:45:21.850Z,14.00
2023-04-23T09:47:56.654Z,13.97
2023-04-23T09:50:40.218Z,14.43
2023-04-23T09:53:09.204Z,14.72
2023-04-23T09:55:41.720Z,14.73
2023-04-23T09:58:13.502Z,15.17
2023-04-23T10:00:40.807Z,15.50
2023-04-23T10:03:09.991Z,15.46
2023-04-23T10:08:13.913Z,15.40
2023-04-23T10:10:56.816Z,15.63
2023-04-23T10:13:28.461Z,15.42
2023-04-23T10:15:59.094Z,15.06
2023-04-23T10:18:33.220Z,15.35
2023-04-23T10:21:03.338Z,15.49
2023-04-23T10:23:33.238Z,15.56
2023-04-23T10:26:01.562Z,15.60
2023-04-23T10:28:31.988Z,15.73
2023-04-23T10:31:01.140Z,15.60
2023-04-23T10:33:37.311Z,15.34
2023-04-23T10:36:09.758Z,15.90
2023-04-23T10:38:42.963Z,16.09
2023-04-23T10:41:24.677Z,16.32
2023-04-23T10:43:53.541Z,16.21
2023-04-23T10:46:39.418Z,16.52
2023-04-23T10:49:07.815Z,16.77
2023-04-23T10:54:07.543Z,17.28
2023-04-23T10:56:35.001Z,17.43
2023-04-23T10:59:02.371Z,17.44
2023-04-23T11:01:32.354Z,17.13
2023-04-23T11:04:00.545Z,17.42
2023-04-23T11:06:49.184Z,16.90
2023-04-23T11:09:33.303Z,16.97
2023-04-23T11:12:01.914Z,16.67
2023-04-23T11:14:38.614Z,16.93
2023-04-23T11:17:08.671Z,17.23
2023-04-23T11:19:36.990Z,17.20
2023-04-23T11:22:14.876Z,17.50
2023-04-23T11:24:43.280Z,17.44
2023-04-23T11:27:15.401Z,16.97
2023-04-23T11:29:45.621Z,16.95
2023-04-23T11:32:17.857Z,17.32
2023-04-23T11:34:46.557Z,17.80
2023-04-23T11:37:18.317Z,17.80
2023-04-23T11:39:47.582Z,17.37
2023-04-23T11:42:15.901Z,17.45
2023-04-23T11:44:44.666Z,17.79
2023-04-23T11:47:13.979Z,17.67
2023-04-23T11:49:45.509Z,17.43
2023-04-23T11:52:12.881Z,17.55
2023-04-23T11:54:42.680Z,17.75
2023-04-23T11:57:10.499Z,17.60
2023-04-23T11:59:37.559Z,17.92
2023-04-23T12:02:04.583Z,18.15
2023-04-23T12:04:32.435Z,18.01
2023-04-23T12:06:59.899Z,18.03
2023-04-23T12:09:28.398Z,17.90
2023-04-23T12:11:57.007Z,17.80
2023-04-23T12:14:30.297Z,18.20
2023-04-23T12:16:58.785Z,18.59
2023-04-23T12:19:31.132Z,18.84
2023-04-23T12:22:00.831Z,18.51
2023-04-23T12:24:45.221Z,18.80
2023-04-23T12:27:16.017Z,18.18
2023-04-23T12:29:43.283Z,18.39
2023-04-23T12:32:11.999Z,18.73
2023-04-23T12:34:53.418Z,18.73
2023-04-23T12:37:25.498Z,18.39
2023-04-23T12:39:53.111Z,18.49
2023-04-23T12:42:19.959Z,18.81
2023-04-23T12:44:47.657Z,18.59
2023-04-23T12:47:19.622Z,18.30
2023-04-23T12:49:49.557Z,18.33
2023-04-23T12:52:16.572Z,18.47
2023-04-23T12:54:44.920Z,18.64
2023-04-23T12:57:14.219Z,19.33
2023-04-23T12:59:41.625Z,18.85
2023-04-23T13:02:09.567Z,18.93
2023-04-23T13:04:37.005Z,19.07
2023-04-23T13:07:04.015Z,18.59
2023-04-23T13:09:30.969Z,18.13
2023-04-23T13:11:57.878Z,18.89
2023-04-23T13:14:24.803Z,18.83
2023-04-23T13:16:52.799Z,18.78
2023-04-23T13:19:19.745Z,19.29
2023-04-23T13:21:46.387Z,19.31
2023-04-23T13:24:13.121Z,19.47
2023-04-23T13:26:40.016Z,19.36
2023-04-23T13:29:07.114Z,18.81
2023-04-23T13:31:34.154Z,18.67
2023-04-23T13:34:02.918Z,18.44
2023-04-23T13:36:29.795Z,18.52
2023-04-23T13:38:56.564Z,18.28
2023-04-23T13:41:23.295Z,18.06
2023-04-23T13:43:50.141Z,17.88
2023-04-23T13:46:17.053Z,17.80
2023-04-23T13:48:43.874Z,17.52
2023-04-23T13:51:21.795Z,17.47
2023-04-23T13:53:59.132Z,17.47
2023-04-23T13:56:27.692Z,17.51
2023-04-23T13:58:59.902Z,17.44
2023-04-23T14:01:31.982Z,17.59
2023-04-23T14:03:59.020Z,17.56
2023-04-23T14:06:26.699Z,18.27
2023-04-23T14:08:53.813Z,18.62
2023-04-23T14:11:22.156Z,18.43
2023-04-23T14:13:49.096Z,18.78
2023-04-23T14:16:16.072Z,18.46
2023-04-23T14:18:43.288Z,18.06
2023-04-23T14:21:10.040Z,18.29
2023-04-23T14:23:45.555Z,18.31
2023-04-23T14:26:37.104Z,18.31
2023-04-23T14:29:24.594Z,18.33
2023-04-23T14:31:52.964Z,18.30
2023-04-23T14:34:19.763Z,18.13
2023-04-23T14:36:49.379Z,17.93
2023-04-23T14:39:16.443Z,18.09
2023-04-23T14:41:43.281Z,17.93
2023-04-23T14:44:10.061Z,18.19
2023-04-23T14:46:37.466Z,18.20
2023-04-23T14:49:04.454Z,18.55
2023-04-23T14:51:31.378Z,18.79
2023-04-23T14:53:58.502Z,18.55
2023-04-23T14:56:25.798Z,18.95
2023-04-23T14:58:52.529Z,18.92
2023-04-23T15:01:19.332Z,19.24
2023-04-23T15:03:46.834Z,19.06
2023-04-23T15:06:13.917Z,18.99
2023-04-23T15:08:41.267Z,18.71
2023-04-23T15:11:13.392Z,18.57
2023-04-23T15:13:57.954Z,18.55
2023-04-23T15:16:47.608Z,18.61
2023-04-23T15:19:17.751Z,18.37
2023-04-23T15:21:46.033Z,18.01
2023-04-23T15:24:13.095Z,18.13
2023-04-23T15:26:40.638Z,18.42
2023-04-23T15:29:10.606Z,18.18
2023-04-23T15:31:38.303Z,18.17
2023-04-23T15:34:07.341Z,17.90
2023-04-23T15:36:35.704Z,17.62
2023-04-23T15:39:02.910Z,17.52
2023-04-23T15:41:29.809Z,17.56
2023-04-23T15:43:56.745Z,17.57
2023-04-23T15:46:24.308Z,17.59
2023-04-23T15:48:51.380Z,17.70
2023-04-23T15:51:18.835Z,17.74
2023-04-23T15:53:45.817Z,17.82
2023-04-23T15:56:13.450Z,17.86
2023-04-23T15:58:41.083Z,17.89
2023-04-23T16:01:09.801Z,17.88
2023-04-23T16:03:37.442Z,17.75
2023-04-23T16:06:08.063Z,17.76
2023-04-23T16:08:36.213Z,17.74
2023-04-23T16:11:04.185Z,17.64
2023-04-23T16:13:31.600Z,17.61
2023-04-23T16:15:58.571Z,17.52
2023-04-23T16:18:25.789Z,17.59
2023-04-23T16:20:53.616Z,17.57
2023-04-23T16:23:20.763Z,17.53
2023-04-23T16:25:47.554Z,17.33
2023-04-23T16:28:14.476Z,17.21
2023-04-23T16:30:42.315Z,17.19
2023-04-23T16:33:10.354Z,17.05
2023-04-23T16:35:37.280Z,16.94
2023-04-23T16:38:04.026Z,16.88
2023-04-23T16:40:30.880Z,16.80
2023-04-23T16:42:58.793Z,16.82
2023-04-23T16:45:27.724Z,16.72
2023-04-23T16:47:54.769Z,16.67
2023-04-23T16:50:21.740Z,16.67
2023-04-23T16:52:48.573Z,16.68
2023-04-23T16:55:15.513Z,16.72
2023-04-23T16:57:42.234Z,16.77
2023-04-23T17:00:10.235Z,16.71
2023-04-23T17:02:38.478Z,17.24
2023-04-23T17:05:06.610Z,16.91
2023-04-23T17:07:33.697Z,16.56
2023-04-23T17:10:01.172Z,16.36
2023-04-23T17:12:29.874Z,16.17
2023-04-23T17:14:57.544Z,16.18
2023-04-23T17:17:24.990Z,16.27
2023-04-23T17:19:52.156Z,16.01
2023-04-23T17:22:19.089Z,15.93
2023-04-23T17:24:46.394Z,15.98
2023-04-23T17:27:15.406Z,15.95
2023-04-23T17:29:42.865Z,15.99
2023-04-23T17:32:10.819Z,15.93
2023-04-23T17:35:13.379Z,15.91
2023-04-23T17:37:40.889Z,15.85
2023-04-23T17:40:09.892Z,15.89
2023-04-23T17:42:36.791Z,15.62
2023-04-23T17:45:05.973Z,15.55
2023-04-23T17:47:33.951Z,15.38
2023-04-23T17:50:11.535Z,15.49
2023-04-23T17:52:41.158Z,15.38
2023-04-23T17:55:09.908Z,15.36
2023-04-23T17:57:38.711Z,15.14
2023-04-23T18:00:09.973Z,15.18
2023-04-23T18:02:40.373Z,15.09
2023-04-23T18:05:15.739Z,15.07
2023-04-23T18:07:44.973Z,15.02
2023-04-23T18:10:14.969Z,14.81
2023-04-23T18:12:43.133Z,14.99
2023-04-23T18:15:12.730Z,14.86
2023-04-23T18:17:39.829Z,14.85
2023-04-23T18:20:09.667Z,14.95
2023-04-23T18:22:38.703Z,14.96
2023-04-23T18:25:06.594Z,15.12
2023-04-23T18:27:34.415Z,14.94
2023-04-23T18:30:01.519Z,15.02
2023-04-23T18:32:34.416Z,14.90
2023-04-23T18:35:02.716Z,14.93
2023-04-23T18:37:33.519Z,14.87
2023-04-23T18:40:00.301Z,14.71
2023-04-23T18:42:27.099Z,14.76
2023-04-23T18:44:55.067Z,14.69
2023-04-23T18:47:26.103Z,14.68
2023-04-23T18:49:55.712Z,14.78
2023-04-23T18:52:22.648Z,14.63
2023-04-23T18:54:49.401Z,14.70
2023-04-23T18:57:16.151Z,14.65
2023-04-23T18:59:43.140Z,14.51
2023-04-23T19:02:14.670Z,14.53
2023-04-23T19:04:45.763Z,14.47
2023-04-23T19:07:12.609Z,14.39
2023-04-23T19:09:39.701Z,14.47
2023-04-23T19:12:06.910Z,14.37
2023-04-23T19:14:34.117Z,14.33
2023-04-23T19:17:03.335Z,14.41
2023-04-23T19:19:32.039Z,14.41
2023-04-23T19:22:01.481Z,14.34
2023-04-23T19:24:29.685Z,14.39
2023-04-23T19:26:58.312Z,14.33
2023-04-23T19:29:25.228Z,14.36
2023-04-23T19:31:52.164Z,14.20
2023-04-23T19:34:19.235Z,14.22
2023-04-23T19:36:46.324Z,14.12
2023-04-23T19:39:14.671Z,14.18
2023-04-23T19:41:42.060Z,14.05
2023-04-23T19:44:08.807Z,14.16
2023-04-23T19:46:35.613Z,14.14
2023-04-23T19:49:02.362Z,14.26
2023-04-23T19:51:32.929Z,14.15
2023-04-23T19:53:59.765Z,14.15
2023-04-23T19:56:28.213Z,14.01
2023-04-23T19:58:55.026Z,14.11
2023-04-23T20:01:22.136Z,14.12
2023-04-23T20:03:50.915Z,14.02
2023-04-23T20:06:17.871Z,14.01
2023-04-23T20:09:03.161Z,13.92
2023-04-23T20:11:30.926Z,13.85
2023-04-23T20:13:59.035Z,13.78
2023-04-23T20:16:26.047Z,13.87
2023-04-23T20:18:52.816Z,13.83
2023-04-23T20:21:19.602Z,13.85
2023-04-23T20:23:46.328Z,13.86
2023-04-23T20:26:15.209Z,13.86
2023-04-23T20:28:42.077Z,13.75
2023-04-23T20:31:09.011Z,13.60
2023-04-23T20:33:35.794Z,13.53
2023-04-23T20:36:02.631Z,13.65
2023-04-23T20:38:30.768Z,13.45
2023-04-23T20:41:02.377Z,13.43
2023-04-23T20:43:30.785Z,13.32
2023-04-23T20:45:58.184Z,13.26
2023-04-23T20:48:26.120Z,13.19
2023-04-23T20:50:52.983Z,13.10
2023-04-23T20:53:20.983Z,13.01
2023-04-23T20:55:47.772Z,13.05
2023-04-23T20:58:14.565Z,13.02
2023-04-23T21:00:42.796Z,12.94
2023-04-23T21:03:12.418Z,12.94
2023-04-23T21:05:41.750Z,12.96
2023-04-23T21:08:09.101Z,12.88
2023-04-23T21:10:38.755Z,12.87
2023-04-23T21:13:07.387Z,12.92
2023-04-23T21:15:35.635Z,12.90
2023-04-23T21:18:02.864Z,12.96
2023-04-23T21:20:29.939Z,12.90
2023-04-23T21:22:56.685Z,13.01
2023-04-23T21:25:23.509Z,13.07
2023-04-23T21:27:50.507Z,13.12
2023-04-23T21:30:29.729Z,12.92
2023-04-23T21:32:58.248Z,12.94
2023-04-23T21:35:25.083Z,12.98
2023-04-23T21:37:51.940Z,12.93
2023-04-23T21:40:18.693Z,12.93
2023-04-23T21:42:46.474Z,12.89
2023-04-23T21:45:13.306Z,12.79
2023-04-23T21:47:41.255Z,12.83
2023-04-23T21:50:09.912Z,12.87
2023-04-23T21:52:37.971Z,12.81
2023-04-23T21:55:05.760Z,12.74
2023-04-23T21:57:33.815Z,12.66
2023-04-23T22:00:01.579Z,12.59
2023-04-23T22:02:28.746Z,12.64
2023-04-23T22:04:55.669Z,12.64
2023-04-23T22:07:22.819Z,12.55
2023-04-23T22:09:49.596Z,12.61
2023-04-23T22:12:18.177Z,12.51
2023-04-23T22:14:46.548Z,12.51
2023-04-23T22:17:13.285Z,12.60
2023-04-23T22:19:40.133Z,12.69
2023-04-23T22:22:06.915Z,12.72
2023-04-23T22:24:33.594Z,12.82
2023-04-23T22:27:00.460Z,12.81
2023-04-23T22:29:27.204Z,12.80
2023-04-23T22:31:53.993Z,12.81
2023-04-23T22:34:20.835Z,12.93
2023-04-23T22:36:48.839Z,12.91
2023-04-23T22:39:15.778Z,12.92
2023-04-23T22:41:42.429Z,13.13
2023-04-23T22:44:09.468Z,13.12
2023-04-23T22:46:37.337Z,13.06
2023-04-23T22:49:04.566Z,13.10
2023-04-23T22:51:33.459Z,13.07
2023-04-23T22:54:00.280Z,13.14
2023-04-23T22:56:27.040Z,13.19
2023-04-23T22:58:53.822Z,13.21
2023-04-23T23:01:20.645Z,13.26
2023-04-23T23:03:47.530Z,13.28
2023-04-23T23:06:14.903Z,13.31
2023-04-23T23:08:41.560Z,13.34
2023-04-23T23:11:08.323Z,13.27
2023-04-23T23:13:35.022Z,13.44
2023-04-23T23:16:06.274Z,13.32
2023-04-23T23:18:33.296Z,13.31
2023-04-23T23:21:00.057Z,13.38
2023-04-23T23:23:26.815Z,13.32
2023-04-23T23:25:53.630Z,13.44
2023-04-23T23:28:21.372Z,13.41
2023-04-23T23:30:49.520Z,13.32
2023-04-23T23:33:16.970Z,13.37
2023-04-23T23:35:43.896Z,13.30
2023-04-23T23:38:10.890Z,13.40
2023-04-23T23:40:39.852Z,13.39
2023-04-23T23:43:08.574Z,13.44
2023-04-23T23:45:35.693Z,13.43
2023-04-23T23:48:02.828Z,13.35
2023-04-23T23:50:29.685Z,13.39
2023-04-23T23:52:56.573Z,13.33
2023-04-23T23:55:24.095Z,13.27
2023-04-23T23:57:52.685Z,13.28
